Time;durP1;ratioP1;P1;durP2;ratioP2;P2;SDS_P1;SDS_P2;PMS_P1;PMS_P2;Temp;Humidity;BMP_temperature;BMP_pressure;BME280_temperature;BME280_humidity;BME280_pressure;Samples;Min_cycle;Max_cycle;Signal;HPM_P1;HPM_P2
2021/01/14 00:01:31;;;;;;;33.40;19.48;;;;;;;-3.30;74.48;98898.34;1711949;82;21445;-66
2021/01/14 00:03:59;;;;;;;40.85;25.10;;;;;;;-3.30;74.48;98897.89;1706851;83;22003;-66
2021/01/14 00:06:27;;;;;;;36.00;23.05;;;;;;;-3.30;74.46;98895.77;1706109;82;21078;-66
2021/01/14 00:08:54;;;;;;;39.45;23.00;;;;;;;-3.30;74.46;98898.34;1726089;82;21086;-66
2021/01/14 00:11:22;;;;;;;42.93;22.32;;;;;;;-3.31;74.49;98893.64;1725399;82;21070;-66
2021/01/14 00:13:50;;;;;;;36.60;21.33;;;;;;;-3.31;74.52;98897.52;1723253;82;21144;-66
2021/01/14 00:16:18;;;;;;;40.00;22.62;;;;;;;-3.33;74.52;98895.92;1724462;83;22144;-66
2021/01/14 00:18:45;;;;;;;33.78;21.45;;;;;;;-3.34;74.54;98890.38;1714478;83;21094;-66
2021/01/14 00:21:13;;;;;;;39.08;23.73;;;;;;;-3.35;74.57;98902.45;1741174;82;21071;-66
2021/01/14 00:23:41;;;;;;;39.70;23.87;;;;;;;-3.35;74.57;98904.20;1731156;82;21214;-66
2021/01/14 00:26:09;;;;;;;52.30;30.72;;;;;;;-3.36;74.55;98904.65;1715723;83;21126;-66
2021/01/14 00:28:37;;;;;;;60.52;33.78;;;;;;;-3.36;74.56;98905.94;1708917;82;22065;-66
2021/01/14 00:31:05;;;;;;;45.17;25.62;;;;;;;-3.36;74.57;98901.23;1734945;82;21502;-66
2021/01/14 00:33:32;;;;;;;55.83;33.63;;;;;;;-3.36;74.57;98907.69;1729396;82;21114;-68
2021/01/14 00:36:00;;;;;;;62.78;38.28;;;;;;;-3.38;74.59;98904.31;1717507;83;21164;-66
2021/01/14 00:38:28;;;;;;;65.57;37.08;;;;;;;-3.40;74.61;98900.52;1723711;83;21142;-67
2021/01/14 00:40:57;;;;;;;55.40;32.58;;;;;;;-3.39;74.63;98906.52;1735627;81;22062;-66
2021/01/14 00:43:25;;;;;;;52.05;29.27;;;;;;;-3.39;74.67;98899.61;1756085;81;21070;-66
2021/01/14 00:45:53;;;;;;;42.38;24.77;;;;;;;-3.38;74.71;98908.19;1724511;82;21145;-66
2021/01/14 00:48:21;;;;;;;38.38;23.35;;;;;;;-3.37;74.73;98909.89;1725012;83;21129;-66
2021/01/14 00:50:50;;;;;;;33.60;20.95;;;;;;;-3.37;74.78;98908.14;1724448;83;21129;-66
2021/01/14 00:53:17;;;;;;;42.35;24.92;;;;;;;-3.35;74.82;98901.16;1717512;83;22074;-66
2021/01/14 00:55:48;;;;;;;42.03;25.27;;;;;;;-3.34;74.81;98904.58;1751727;81;21069;-66
2021/01/14 00:58:15;;;;;;;35.13;23.65;;;;;;;-3.33;74.83;98899.80;1724927;83;21484;-66
2021/01/14 01:00:43;;;;;;;39.67;24.65;;;;;;;-3.32;74.84;98902.75;1741835;81;21466;-66
2021/01/14 01:03:11;;;;;;;43.17;24.55;;;;;;;-3.31;74.85;98898.80;1755431;81;21142;-66
2021/01/14 01:05:39;;;;;;;55.95;28.20;;;;;;;-3.31;74.86;98894.09;1725140;83;22075;-66
2021/01/14 01:08:07;;;;;;;52.55;26.50;;;;;;;-3.33;74.85;98900.62;1753093;81;21503;-67
2021/01/14 01:10:34;;;;;;;48.10;25.27;;;;;;;-3.34;74.83;98900.25;1755239;81;21094;-66
2021/01/14 01:13:02;;;;;;;45.23;26.20;;;;;;;-3.34;74.89;98904.58;1724921;82;21352;-66
2021/01/14 01:15:31;;;;;;;50.40;27.90;;;;;;;-3.36;74.88;98905.94;1754157;80;21132;-66
2021/01/14 01:17:59;;;;;;;39.27;23.83;;;;;;;-3.36;74.89;98916.72;1755377;81;22130;-66
2021/01/14 01:20:27;;;;;;;34.60;21.87;;;;;;;-3.38;74.92;98919.80;1731603;76;21066;-66
2021/01/14 01:22:57;;;;;;;39.25;23.70;;;;;;;-3.42;74.97;98917.83;1721638;82;21126;-66
2021/01/14 01:25:26;;;;;;;35.52;22.17;;;;;;;-3.42;75.00;98926.03;1738723;81;21185;-64
2021/01/14 01:27:54;;;;;;;29.42;17.42;;;;;;;-3.45;75.05;98932.17;1738797;82;21134;-64
2021/01/14 01:30:22;;;;;;;36.80;22.00;;;;;;;-3.47;75.11;98932.25;1711560;82;21896;-64
2021/01/14 01:33:09;;;;;;;33.95;20.32;;;;;;;-3.48;75.16;98939.58;1734360;82;21102;-65
2021/01/14 01:35:37;;;;;;;36.13;21.65;;;;;;;-3.49;75.22;98933.20;1733054;82;21123;-65
2021/01/14 01:38:05;;;;;;;33.50;21.90;;;;;;;-3.51;75.30;98939.73;1727584;82;21162;-65
2021/01/14 01:40:34;;;;;;;31.65;21.70;;;;;;;-3.50;75.34;98939.27;1739966;81;21007;-68
2021/01/14 01:43:02;;;;;;;36.15;22.93;;;;;;;-3.52;75.43;98935.48;1718525;83;21899;-66
2021/01/14 01:45:30;;;;;;;27.42;17.57;;;;;;;-3.51;75.50;98929.41;1740378;81;21168;-65
2021/01/14 01:47:58;;;;;;;44.05;25.55;;;;;;;-3.51;75.61;98929.41;1731303;82;21036;-65
2021/01/14 01:50:26;;;;;;;47.00;28.32;;;;;;;-3.52;75.65;98927.73;1734407;82;21133;-65
2021/01/14 01:52:55;;;;;;;46.37;25.88;;;;;;;-3.49;75.73;98928.88;1714947;82;21141;-65
2021/01/14 01:55:23;;;;;;;44.75;25.88;;;;;;;-3.49;75.82;98925.00;1723612;83;22070;-65
2021/01/14 01:57:50;;;;;;;40.78;24.72;;;;;;;-3.46;75.85;98927.92;1693730;84;21526;-65
2021/01/14 02:00:20;;;;;;;34.75;23.18;;;;;;;-3.45;75.92;98921.84;1743738;81;21075;-65
2021/01/14 02:02:47;;;;;;;37.83;23.55;;;;;;;-3.42;75.96;98926.03;1716789;81;21144;-65
2021/01/14 02:05:16;;;;;;;37.23;23.25;;;;;;;-3.42;75.99;98916.54;1752665;81;21170;-65
2021/01/14 02:08:02;;;;;;;25.97;16.55;;;;;;;-3.40;76.05;98910.01;1742395;82;22048;-66
2021/01/14 02:10:36;;;;;;;32.53;19.65;;;;;;;-3.40;76.07;98917.30;1712029;83;21125;-65
2021/01/14 02:13:47;;;;;;;42.27;26.73;;;;;;;-3.39;76.09;98917.67;1742483;82;28100;-65
2021/01/14 02:16:15;;;;;;;43.52;26.73;;;;;;;-3.40;76.16;98922.46;1741752;81;21134;-64
2021/01/14 02:18:43;;;;;;;42.58;26.35;;;;;;;-3.40;76.19;98921.63;1723692;82;21623;-65
2021/01/14 02:21:13;;;;;;;34.43;21.30;;;;;;;-3.39;76.20;98928.45;1643316;85;22968;-65
2021/01/14 02:24:12;;;;;;;36.20;22.22;;;;;;;-3.40;76.22;98923.75;1697672;84;21494;-65
2021/01/14 02:26:41;;;;;;;28.40;17.67;;;;;;;-3.41;76.27;98922.53;1674603;85;21058;-66
2021/01/14 02:29:08;;;;;;;32.63;21.23;;;;;;;-3.42;76.33;98926.03;1650066;84;21121;-66
2021/01/14 02:31:36;;;;;;;38.67;24.20;;;;;;;-3.43;76.36;98925.19;1677124;84;21111;-65
2021/01/14 02:34:04;;;;;;;40.55;25.57;;;;;;;-3.42;76.38;98929.90;1686547;84;21956;-65
2021/01/14 02:36:32;;;;;;;37.28;22.42;;;;;;;-3.42;76.45;98932.02;1702809;84;21104;-65
2021/01/14 02:39:00;;;;;;;38.78;24.72;;;;;;;-3.43;76.47;98926.48;1692543;84;21102;-64
2021/01/14 02:41:28;;;;;;;43.50;28.83;;;;;;;-3.43;76.51;98919.20;1702321;83;21110;-65
2021/01/14 02:43:56;;;;;;;46.90;28.98;;;;;;;-3.41;76.51;98930.28;1701181;84;21145;-65
2021/01/14 02:46:23;;;;;;;34.58;21.30;;;;;;;-3.41;76.54;98927.24;1702918;84;21920;-65
2021/01/14 02:49:05;;;;;;;39.88;23.73;;;;;;;-3.38;76.58;98926.26;1702253;84;21110;-66
2021/01/14 02:51:41;;;;;;;40.55;24.32;;;;;;;-3.38;76.60;98922.38;1700519;84;21081;-65
2021/01/14 02:54:10;;;;;;;44.50;27.87;;;;;;;-3.38;76.62;98927.55;1700754;82;21078;-64
2021/01/14 02:56:38;;;;;;;44.03;27.02;;;;;;;-3.36;76.63;98928.34;1701940;84;21200;-65
2021/01/14 02:59:06;;;;;;;46.45;28.12;;;;;;;-3.37;76.68;98933.96;1699977;84;21896;-64
2021/01/14 03:01:34;;;;;;;47.95;28.90;;;;;;;-3.35;76.69;98928.72;1690673;84;21608;-64
2021/01/14 03:04:02;;;;;;;42.55;26.33;;;;;;;-3.33;76.75;98929.48;1696106;84;21509;-65
2021/01/14 03:06:31;;;;;;;46.73;29.35;;;;;;;-3.31;76.79;98925.91;1702890;84;21145;-64
2021/01/14 03:08:59;;;;;;;47.27;30.00;;;;;;;-3.30;76.78;98934.03;1701838;84;21077;-65
2021/01/14 03:11:31;;;;;;;46.13;29.35;;;;;;;-3.29;76.79;98939.58;1678944;84;23079;-64
2021/01/14 03:13:59;;;;;;;42.17;27.32;;;;;;;-3.28;76.82;98932.67;1699382;84;21169;-64
2021/01/14 03:16:27;;;;;;;38.45;23.67;;;;;;;-3.26;76.86;98929.13;1702970;82;21592;-64
2021/01/14 03:18:55;;;;;;;39.53;25.13;;;;;;;-3.25;76.88;98922.22;1702542;83;21256;-64
2021/01/14 03:21:24;;;;;;;44.13;28.12;;;;;;;-3.26;76.88;98927.01;1696496;84;21236;-64
2021/01/14 03:23:52;;;;;;;43.68;28.95;;;;;;;-3.26;76.89;98925.72;1701994;84;21907;-64
2021/01/14 03:26:20;;;;;;;49.85;29.02;;;;;;;-3.26;76.92;98928.30;1701178;84;21094;-64
2021/01/14 03:28:49;;;;;;;52.53;31.17;;;;;;;-3.27;76.93;98927.47;1702071;84;21093;-64
2021/01/14 03:31:18;;;;;;;47.40;27.13;;;;;;;-3.26;76.97;98927.84;1675363;83;21102;-64
2021/01/14 03:33:47;;;;;;;42.30;26.02;;;;;;;-3.25;77.00;98926.94;1698886;84;21098;-64
2021/01/14 03:36:17;;;;;;;39.88;24.80;;;;;;;-3.23;76.99;98929.44;1701966;84;22948;-64
2021/01/14 03:38:45;;;;;;;50.48;29.75;;;;;;;-3.24;77.00;98927.77;1701978;84;21212;-64
2021/01/14 03:41:15;;;;;;;48.87;28.40;;;;;;;-3.24;76.98;98928.60;1677608;84;21058;-65
2021/01/14 03:43:42;;;;;;;44.65;27.80;;;;;;;-3.22;77.00;98931.11;1702097;84;21359;-64
2021/01/14 03:46:15;;;;;;;50.30;30.92;;;;;;;-3.21;77.03;98926.33;1700238;84;21141;-64
2021/01/14 03:48:45;;;;;;;40.12;25.32;;;;;;;-3.20;77.01;98930.12;1702182;84;22811;-64
2021/01/14 03:51:19;;;;;;;44.30;28.67;;;;;;;-3.19;77.00;98920.63;1676976;84;21098;-64
2021/01/14 03:53:50;;;;;;;40.20;26.55;;;;;;;-3.17;77.01;98927.88;1678571;84;21169;-64
2021/01/14 03:56:39;;;;;;;44.93;26.70;;;;;;;-3.17;76.99;98921.42;1700148;84;21157;-64
2021/01/14 03:59:07;;;;;;;53.08;31.30;;;;;;;-3.17;77.02;98931.75;1675108;85;21100;-64
2021/01/14 04:01:35;;;;;;;49.27;29.32;;;;;;;-3.16;77.04;98924.38;1663679;85;22045;-64
2021/01/14 04:04:03;;;;;;;50.30;30.17;;;;;;;-3.14;77.04;98926.43;1675184;85;21178;-64
2021/01/14 04:06:36;;;;;;;47.78;30.17;;;;;;;-3.11;77.08;98922.41;1675150;84;21143;-65
2021/01/14 04:09:06;;;;;;;49.03;30.45;;;;;;;-3.08;77.12;98920.16;1674714;85;21093;-64
2021/01/14 04:11:35;;;;;;;48.13;29.50;;;;;;;-3.07;77.13;98917.49;1648024;85;21104;-66
2021/01/14 04:14:03;;;;;;;49.65;29.90;;;;;;;-3.06;77.13;98916.58;1678956;84;21903;-64
2021/01/14 04:16:31;;;;;;;46.85;29.37;;;;;;;-3.05;77.17;98920.00;1678817;84;21535;-64
2021/01/14 04:18:58;;;;;;;40.33;24.52;;;;;;;-3.04;77.23;98922.50;1678592;85;21107;-64
2021/01/14 04:21:27;;;;;;;32.70;20.52;;;;;;;-3.01;77.28;98922.80;1678445;84;21789;-64
2021/01/14 04:23:54;;;;;;;48.42;30.17;;;;;;;-3.01;77.31;98925.39;1672693;85;21076;-64
2021/01/14 04:26:22;;;;;;;47.45;29.87;;;;;;;-3.04;77.35;98919.92;1674538;85;22092;-64
2021/01/14 04:28:50;;;;;;;54.35;32.08;;;;;;;-3.05;77.41;98914.83;1678713;85;21184;-64
2021/01/14 04:31:18;;;;;;;42.48;26.93;;;;;;;-3.05;77.47;98925.16;1648440;85;21095;-64
2021/01/14 04:33:47;;;;;;;43.80;27.20;;;;;;;-3.05;77.53;98925.16;1644208;85;21190;-64
2021/01/14 04:36:16;;;;;;;42.38;26.10;;;;;;;-3.06;77.60;98924.33;1665006;86;21103;-64
2021/01/14 04:38:44;;;;;;;46.95;29.23;;;;;;;-3.05;77.64;98921.29;1648407;87;21923;-64
2021/01/14 04:41:13;;;;;;;55.45;33.53;;;;;;;-3.04;77.65;98929.41;1646987;87;21157;-65
2021/01/14 04:43:40;;;;;;;58.45;34.53;;;;;;;-3.03;77.72;98927.22;1622954;87;21193;-65
2021/01/14 04:46:11;;;;;;;55.83;33.00;;;;;;;-3.01;77.73;98924.09;1631441;85;21183;-65
2021/01/14 04:48:44;;;;;;;64.53;35.80;;;;;;;-3.01;77.77;98922.80;1676569;84;21077;-65
2021/01/14 04:51:17;;;;;;;55.15;31.62;;;;;;;-3.00;77.83;98934.80;1676551;84;21629;-65
2021/01/14 04:53:47;;;;;;;57.00;34.13;;;;;;;-3.00;77.83;98935.64;1620735;87;21107;-65
2021/01/14 04:56:18;;;;;;;41.75;24.95;;;;;;;-2.99;77.85;98931.31;1647093;87;21098;-65
2021/01/14 04:58:47;;;;;;;46.92;27.62;;;;;;;-3.00;77.88;98929.19;1638100;87;21113;-65
2021/01/14 05:01:21;;;;;;;41.55;24.57;;;;;;;-3.00;77.92;98933.06;1647945;86;21115;-65
2021/01/14 05:03:51;;;;;;;49.88;29.87;;;;;;;-2.98;77.94;98930.43;1637965;86;22977;-65
2021/01/14 05:06:22;;;;;;;49.98;30.32;;;;;;;-3.00;77.95;98933.06;1615532;87;21134;-65
2021/01/14 05:08:53;;;;;;;60.08;35.15;;;;;;;-2.99;77.99;98930.02;1662617;86;21222;-65
2021/01/14 05:11:20;;;;;;;55.12;34.67;;;;;;;-2.99;78.04;98929.59;1662723;86;21214;-64
2021/01/14 05:13:48;;;;;;;44.53;28.15;;;;;;;-2.97;78.07;98930.36;1615680;87;21131;-64
2021/01/14 05:16:16;;;;;;;51.15;31.52;;;;;;;-2.97;78.12;98929.06;1611757;87;22173;-64
2021/01/14 05:18:44;;;;;;;42.80;26.37;;;;;;;-2.95;78.13;98929.82;1617663;86;21163;-65
2021/01/14 05:21:12;;;;;;;52.10;32.63;;;;;;;-2.93;78.14;98934.45;1655264;85;21166;-64
2021/01/14 05:23:40;;;;;;;42.62;25.92;;;;;;;-2.93;78.19;98924.12;1637630;87;22631;-64
2021/01/14 05:26:08;;;;;;;49.48;30.02;;;;;;;-2.92;78.21;98921.91;1637901;87;21155;-64
2021/01/14 05:28:38;;;;;;;40.50;23.52;;;;;;;-2.91;78.21;98922.30;1638064;87;22983;-64
2021/01/14 05:31:18;;;;;;;49.35;28.70;;;;;;;-2.90;78.25;98920.09;1641243;86;21143;-64
2021/01/14 05:33:59;;;;;;;55.78;31.82;;;;;;;-2.88;78.27;98917.45;1664818;86;21108;-66
2021/01/14 05:36:26;;;;;;;61.58;35.05;;;;;;;-2.87;78.29;98918.30;1665083;85;21226;-64
2021/01/14 05:38:58;;;;;;;69.15;39.30;;;;;;;-2.88;78.34;98914.88;1665038;85;21383;-64
2021/01/14 05:41:28;;;;;;;67.80;36.90;;;;;;;-2.86;78.36;98918.67;1651129;86;24392;-64
2021/01/14 05:44:00;;;;;;;53.98;29.48;;;;;;;-2.85;78.39;98921.63;1663870;86;21522;-65
2021/01/14 05:46:32;;;;;;;63.38;33.98;;;;;;;-2.83;78.44;98919.80;1635572;87;21441;-64
2021/01/14 05:49:04;;;;;;;59.08;34.85;;;;;;;-2.84;78.48;98925.43;1637969;87;21482;-64
2021/01/14 05:51:33;;;;;;;57.80;32.95;;;;;;;-2.83;78.54;98932.27;1643128;86;21151;-64
2021/01/14 05:54:08;;;;;;;47.55;27.30;;;;;;;-2.82;78.62;98933.10;1638155;86;22035;-65
2021/01/14 05:56:49;;;;;;;52.90;28.80;;;;;;;-2.82;78.69;98931.81;1644801;86;21107;-64
2021/01/14 05:59:19;;;;;;;61.15;31.52;;;;;;;-2.81;78.79;98933.48;1660133;86;21095;-64
2021/01/14 06:01:57;;;;;;;57.03;29.80;;;;;;;-2.81;78.96;98936.90;1664165;86;21125;-63
2021/01/14 06:04:27;;;;;;;48.87;25.23;;;;;;;-2.81;79.13;98936.06;1663107;86;21096;-64
2021/01/14 06:06:57;;;;;;;49.88;26.77;;;;;;;-2.81;79.23;98938.65;1639520;86;22810;-64
2021/01/14 06:09:24;;;;;;;58.40;32.42;;;;;;;-2.81;79.31;98934.77;1606732;88;21120;-65
2021/01/14 06:12:08;;;;;;;57.88;30.72;;;;;;;-2.81;79.43;98939.48;1632801;87;21169;-64
2021/01/14 06:14:36;;;;;;;41.60;23.55;;;;;;;-2.81;79.49;98937.36;1645133;86;21648;-64
2021/01/14 06:17:09;;;;;;;52.40;26.77;;;;;;;-2.77;79.56;98937.61;1634150;87;21164;-64
2021/01/14 06:19:37;;;;;;;44.20;23.65;;;;;;;-2.76;79.63;98940.12;1629135;86;22099;-64
2021/01/14 06:22:05;;;;;;;61.73;32.70;;;;;;;-2.77;79.67;98934.56;1664096;86;21117;-64
2021/01/14 06:24:37;;;;;;;51.15;26.55;;;;;;;-2.75;79.73;98940.95;1634080;87;21552;-64
2021/01/14 06:27:09;;;;;;;52.65;30.88;;;;;;;-2.75;79.81;98941.78;1632702;87;21110;-63
2021/01/14 06:29:40;;;;;;;58.08;31.27;;;;;;;-2.75;79.86;98940.95;1666396;86;21074;-67
2021/01/14 06:32:17;;;;;;;58.85;29.67;;;;;;;-2.74;79.97;98935.70;1666481;85;22886;-66
2021/01/14 06:34:47;;;;;;;46.75;25.23;;;;;;;-2.73;80.01;98934.79;1666310;86;21447;-68
2021/01/14 06:37:26;;;;;;;48.65;25.62;;;;;;;-2.71;80.11;98936.84;1640185;86;21111;-66
2021/01/14 06:39:59;;;;;;;62.93;32.70;;;;;;;-2.68;80.19;98937.17;1665507;84;21173;-66
2021/01/14 06:42:35;;;;;;;58.45;31.15;;;;;;;-2.68;80.31;98933.29;1659027;86;21094;-66
2021/01/14 06:45:09;;;;;;;57.67;29.70;;;;;;;-2.68;80.39;98933.29;1666315;84;22986;-66
2021/01/14 06:47:41;;;;;;;63.50;32.63;;;;;;;-2.66;80.48;98934.88;1666460;86;21412;-66
2021/01/14 06:50:20;;;;;;;64.37;31.65;;;;;;;-2.62;80.57;98940.73;1666311;84;21106;-66
2021/01/14 06:53:09;;;;;;;44.75;21.87;;;;;;;-2.60;80.63;98945.39;1666188;86;21084;-67
2021/01/14 06:55:37;;;;;;;63.10;33.05;;;;;;;-2.57;80.69;98946.98;1666019;84;21606;-66
2021/01/14 06:58:14;;;;;;;57.85;30.25;;;;;;;-2.56;80.74;98944.31;1666272;86;21917;-66
2021/01/14 07:00:45;;;;;;;71.95;37.63;;;;;;;-2.53;80.79;98946.74;1606581;87;21145;-66
2021/01/14 07:03:23;;;;;;;66.80;32.50;;;;;;;-2.50;80.92;98954.38;1602097;89;21166;-65
2021/01/14 07:06:04;;;;;;;62.75;32.38;;;;;;;-2.48;80.96;98954.29;1664355;85;21589;-64
2021/01/14 07:09:02;;;;;;;52.93;27.58;;;;;;;-2.44;81.01;98954.51;1664313;86;21134;-65
2021/01/14 07:11:35;;;;;;;69.45;35.20;;;;;;;-2.41;81.08;98964.72;1664397;85;22104;-65
2021/01/14 07:14:13;;;;;;;64.32;32.73;;;;;;;-2.40;81.14;98962.05;1639504;86;21175;-67
2021/01/14 07:16:43;;;;;;;59.33;31.20;;;;;;;-2.36;81.19;98962.27;1656716;85;21490;-66
2021/01/14 07:19:11;;;;;;;65.40;34.73;;;;;;;-2.31;81.25;98962.89;1664111;86;21610;-66
2021/01/14 07:21:42;;;;;;;60.48;32.78;;;;;;;-2.29;81.29;98969.73;1664018;86;21093;-66
2021/01/14 07:24:19;;;;;;;67.60;35.15;;;;;;;-2.27;81.31;98971.33;1664210;86;22074;-65
2021/01/14 07:27:00;;;;;;;52.15;29.23;;;;;;;-2.24;81.33;98968.58;1667713;83;21138;-65
2021/01/14 07:29:31;;;;;;;44.73;24.35;;;;;;;-2.20;81.36;98973.16;1611116;87;21177;-63
2021/01/14 07:32:01;;;;;;;63.13;33.88;;;;;;;-2.18;81.40;98972.63;1630729;86;21533;-65
2021/01/14 07:34:45;;;;;;;52.20;30.00;;;;;;;-2.16;81.41;98969.50;1661157;86;21084;-65
2021/01/14 07:37:18;;;;;;;57.27;30.75;;;;;;;-2.11;81.42;98971.41;1606974;89;22099;-65
2021/01/14 07:39:56;;;;;;;67.97;34.73;;;;;;;-2.08;81.42;98973.84;1632351;87;21119;-65
2021/01/14 07:42:31;;;;;;;84.62;50.73;;;;;;;-2.06;81.44;98976.72;1642228;86;21153;-65
2021/01/14 07:45:09;;;;;;;65.62;35.48;;;;;;;-2.03;81.43;98972.70;1634199;87;21505;-66
2021/01/14 07:47:38;;;;;;;56.77;31.05;;;;;;;-1.99;81.41;98973.83;1631622;87;21088;-65
2021/01/14 07:50:21;;;;;;;58.35;30.97;;;;;;;-1.95;81.42;98977.47;1650090;87;22091;-64
2021/01/14 07:52:56;;;;;;;51.37;29.25;;;;;;;-1.94;81.39;98976.55;1635369;87;21654;-66
2021/01/14 07:55:34;;;;;;;63.70;35.73;;;;;;;-1.94;81.38;98977.01;1641078;87;21597;-66
2021/01/14 08:01:07;;;;;;;57.93;36.05;;;;;;;-1.85;81.38;98973.95;1873430;75;28232;-66
2021/01/14 08:03:42;;;;;;;70.95;39.00;;;;;;;-1.88;81.36;98976.70;1848593;76;21183;-66
2021/01/14 08:06:24;;;;;;;61.88;36.70;;;;;;;-1.86;81.37;98980.05;1829835;78;22923;-67
2021/01/14 08:09:03;;;;;;;60.43;35.23;;;;;;;-1.84;81.34;98979.05;1797337;78;21154;-66
2021/01/14 08:11:35;;;;;;;77.10;43.42;;;;;;;-1.80;81.34;98979.28;1798157;78;21179;-67
2021/01/14 08:14:23;;;;;;;66.20;37.73;;;;;;;-1.76;81.33;98978.66;1760807;80;21612;-67
2021/01/14 08:16:54;;;;;;;59.63;35.00;;;;;;;-1.75;81.30;98977.28;1758426;80;21149;-67
2021/01/14 08:19:39;;;;;;;62.43;36.63;;;;;;;-1.71;81.29;98984.91;1758056;81;21960;-66
2021/01/14 08:22:13;;;;;;;67.65;40.15;;;;;;;-1.69;81.26;98978.73;1758054;80;21169;-66
2021/01/14 08:24:59;;;;;;;65.85;35.85;;;;;;;-1.68;81.23;98976.52;1741004;81;21160;-65
2021/01/14 08:27:36;;;;;;;56.28;33.50;;;;;;;-1.65;81.24;98976.81;1757508;81;21156;-65
2021/01/14 08:30:15;;;;;;;62.43;35.70;;;;;;;-1.63;81.22;98975.00;1757497;81;21247;-67
2021/01/14 08:33:04;;;;;;;44.77;26.30;;;;;;;-1.59;81.21;98973.91;1736398;82;22965;-67
2021/01/14 08:35:37;;;;;;;65.83;38.08;;;;;;;-1.55;81.19;98976.25;1747357;80;21260;-67
2021/01/14 08:38:15;;;;;;;62.55;37.03;;;;;;;-1.54;81.16;98978.41;1728333;81;21183;-67
2021/01/14 08:40:42;;;;;;;50.12;29.55;;;;;;;-1.50;81.15;98981.20;1755266;80;21487;-68
2021/01/14 08:43:18;;;;;;;54.33;32.83;;;;;;;-1.48;81.09;98973.72;1748228;81;21202;-68
2021/01/14 08:45:50;;;;;;;65.37;39.20;;;;;;;-1.47;81.09;98977.14;1746184;81;22074;-67
2021/01/14 08:48:29;;;;;;;50.05;30.35;;;;;;;-1.45;81.05;98981.35;1732451;81;21199;-66
2021/01/14 08:51:02;;;;;;;66.42;39.75;;;;;;;-1.44;81.00;98980.89;1737184;81;21175;-66
2021/01/14 08:53:34;;;;;;;49.10;27.98;;;;;;;-1.45;81.02;98977.47;1743227;80;21203;-67
2021/01/14 08:56:11;;;;;;;49.73;29.67;;;;;;;-1.41;81.00;98979.42;1748228;81;21163;-68
2021/01/14 08:58:48;;;;;;;56.08;35.13;;;;;;;-1.38;80.97;98987.48;1735730;81;22076;-68
2021/01/14 09:01:22;;;;;;;57.88;34.75;;;;;;;-1.36;80.97;98987.77;1749328;81;21198;-68
2021/01/14 09:03:52;;;;;;;47.70;28.65;;;;;;;-1.31;80.93;98981.91;1748130;80;21619;-68
2021/01/14 09:06:37;;;;;;;52.78;34.73;;;;;;;-1.28;80.90;98977.01;1739140;81;21203;-73
2021/01/14 09:09:06;;;;;;;70.97;45.73;;;;;;;-1.24;80.88;98981.13;1750351;81;21524;-71
2021/01/14 09:11:35;;;;;;;61.58;38.83;;;;;;;-1.23;80.79;98984.92;1737740;81;22062;-71
2021/01/14 09:14:15;;;;;;;59.25;39.67;;;;;;;-1.22;80.72;98984.00;1742105;81;21097;-69
2021/01/14 09:16:45;;;;;;;44.25;28.30;;;;;;;-1.21;80.68;98980.49;1726573;81;21125;-67
2021/01/14 09:19:21;;;;;;;49.60;29.70;;;;;;;-1.20;80.61;98972.26;1742382;81;21085;-66
2021/01/14 09:21:49;;;;;;;68.47;40.65;;;;;;;-1.19;80.57;98981.70;1710524;81;21167;-66
2021/01/14 09:24:19;;;;;;;67.27;38.98;;;;;;;-1.18;80.54;98976.44;1750266;81;22938;-67
2021/01/14 09:26:50;;;;;;;67.87;40.60;;;;;;;-1.13;80.48;98980.55;1745673;81;21148;-65
2021/01/14 09:29:21;;;;;;;50.23;29.72;;;;;;;-1.13;80.43;98968.43;1747657;81;21163;-65
2021/01/14 09:31:50;;;;;;;48.95;31.93;;;;;;;-1.10;80.39;98973.44;1732147;81;21184;-67
2021/01/14 09:34:22;;;;;;;40.60;24.80;;;;;;;-1.09;80.32;98975.56;1749091;81;21112;-64
2021/01/14 09:36:51;;;;;;;52.73;31.23;;;;;;;-1.08;80.24;98975.48;1745057;81;22067;-65
2021/01/14 09:39:21;;;;;;;48.98;30.70;;;;;;;-1.09;80.15;98969.92;1736750;81;21157;-72
2021/01/14 09:41:49;;;;;;;46.75;29.50;;;;;;;-1.07;80.09;98978.44;1744592;81;21473;-68
2021/01/14 09:44:18;;;;;;;49.08;28.87;;;;;;;-1.07;80.03;98977.14;1698042;80;21171;-68
2021/01/14 09:46:47;;;;;;;45.23;28.12;;;;;;;-1.05;79.93;98974.50;1745892;81;21092;-67
2021/01/14 09:49:19;;;;;;;41.80;29.35;;;;;;;-1.06;79.86;98973.66;1749991;80;22040;-67
2021/01/14 09:51:53;;;;;;;37.55;24.07;;;;;;;-1.04;79.80;98977.46;1751722;81;21165;-67
2021/01/14 09:54:22;;;;;;;53.28;33.40;;;;;;;-1.03;79.78;98978.67;1744472;81;21513;-67
2021/01/14 09:56:53;;;;;;;50.65;31.45;;;;;;;-1.01;79.69;98975.98;1748772;81;21184;-66
2021/01/14 09:59:42;;;;;;;37.30;24.67;;;;;;;-1.01;79.60;98979.41;1745530;81;21057;-67
2021/01/14 10:02:21;;;;;;;34.58;23.15;;;;;;;-1.01;79.55;98973.40;1747872;81;21535;-66
2021/01/14 10:04:59;;;;;;;34.25;24.15;;;;;;;-1.00;79.49;98969.88;1755963;81;21161;-68
2021/01/14 10:07:27;;;;;;;28.17;19.12;;;;;;;-0.97;79.44;98968.41;1740007;81;21133;-69
2021/01/14 10:09:56;;;;;;;34.55;23.40;;;;;;;-0.96;79.26;98970.11;1726027;82;21173;-67
2021/01/14 10:12:24;;;;;;;35.30;24.43;;;;;;;-0.98;79.13;98966.28;1759448;81;21134;-68
2021/01/14 10:15:15;;;;;;;36.77;23.27;;;;;;;-0.97;79.03;98967.11;1741905;81;22072;-68
2021/01/14 10:17:47;;;;;;;31.25;19.98;;;;;;;-0.98;78.90;98962.39;1742935;80;21170;-70
2021/01/14 10:20:15;;;;;;;36.48;24.20;;;;;;;-0.97;78.78;98969.24;1726186;81;21213;-68
2021/01/14 10:23:05;;;;;;;25.17;16.85;;;;;;;-0.96;78.70;98972.70;1752206;79;21160;-68
2021/01/14 10:25:34;;;;;;;21.52;14.73;;;;;;;-0.95;78.64;98955.77;1731968;81;21196;-69
2021/01/14 10:28:06;;;;;;;29.45;19.57;;;;;;;-0.95;78.49;98962.25;1756275;80;22046;-68
2021/01/14 10:30:43;;;;;;;25.32;17.30;;;;;;;-0.96;78.41;98955.39;1765155;79;21195;-69
2021/01/14 10:33:11;;;;;;;19.87;14.58;;;;;;;-0.94;78.37;98957.44;1769310;79;21180;-68
2021/01/14 10:35:40;;;;;;;24.87;18.55;;;;;;;-0.92;78.26;98951.70;1739867;81;21116;-68
2021/01/14 10:38:14;;;;;;;26.45;19.20;;;;;;;-0.89;78.15;98951.52;1765952;80;21188;-70
2021/01/14 10:40:49;;;;;;;25.25;17.70;;;;;;;-0.86;78.10;98945.36;1775003;80;22059;-69
2021/01/14 10:43:34;;;;;;;24.60;17.67;;;;;;;-0.85;77.97;98943.14;1761210;81;21115;-69
2021/01/14 10:46:04;;;;;;;21.70;16.23;;;;;;;-0.84;77.84;98940.08;1757885;79;21145;-69
2021/01/14 10:48:38;;;;;;;24.50;17.82;;;;;;;-0.84;77.71;98946.56;1758935;80;21118;-68
2021/01/14 10:51:10;;;;;;;23.87;16.30;;;;;;;-0.84;77.59;98944.80;1716523;82;21209;-67
2021/01/14 10:53:41;;;;;;;28.98;19.77;;;;;;;-0.84;77.46;98942.21;1728480;81;22069;-70
2021/01/14 10:58:58;;;;;;;26.25;17.32;;;;;;;-0.78;77.28;98938.42;1889393;74;29082;-69
2021/01/14 11:01:30;;;;;;;22.40;14.75;;;;;;;-0.80;77.14;98937.68;1824431;77;21089;-73
2021/01/14 11:04:07;;;;;;;27.48;18.15;;;;;;;-0.80;76.96;98935.92;1826977;77;22088;-71
2021/01/14 11:06:37;;;;;;;21.95;15.90;;;;;;;-0.80;76.86;98935.92;1797618;77;21170;-71
2021/01/14 11:09:08;;;;;;;21.82;16.02;;;;;;;-0.78;76.73;98934.07;1839895;77;21104;-70
2021/01/14 11:11:38;;;;;;;28.07;17.85;;;;;;;-0.78;76.65;98934.53;1826746;77;21126;-70
2021/01/14 11:14:06;;;;;;;25.68;17.62;;;;;;;-0.78;76.54;98931.48;1813230;77;21174;-73
2021/01/14 11:16:36;;;;;;;22.22;13.03;;;;;;;-0.78;76.40;98926.76;1801701;78;22522;-75
2021/01/14 11:19:04;;;;;;;31.82;21.45;;;;;;;-0.78;76.30;98932.77;1795550;78;21154;-69
2021/01/14 11:21:33;;;;;;;32.08;20.62;;;;;;;-0.78;76.20;98931.48;1809536;78;21064;-72
2021/01/14 11:24:03;;;;;;;27.93;17.42;;;;;;;-0.77;76.10;98931.88;1806910;79;21059;-70
2021/01/14 11:26:31;;;;;;;21.77;14.68;;;;;;;-0.77;75.94;98927.13;1815548;79;21168;-68
2021/01/14 11:29:00;;;;;;;23.55;17.10;;;;;;;-0.78;75.76;98926.30;1815955;79;22962;-68
2021/01/14 11:31:28;;;;;;;23.98;17.50;;;;;;;-0.77;75.67;98928.42;1811996;78;21079;-69
2021/01/14 11:34:04;;;;;;;21.48;14.33;;;;;;;-0.78;75.62;98926.30;1790095;79;21553;-69
2021/01/14 11:36:39;;;;;;;17.80;12.58;;;;;;;-0.76;75.54;98922.34;1797633;78;29208;-71
2021/01/14 11:39:10;;;;;;;18.55;13.05;;;;;;;-0.77;75.43;98926.70;1800183;79;21569;-70
2021/01/14 11:41:40;;;;;;;24.55;16.07;;;;;;;-0.76;75.17;98928.83;1797130;79;22990;-69
2021/01/14 11:44:08;;;;;;;22.98;15.95;;;;;;;-0.77;75.07;98926.70;1802309;78;21131;-69